Time;durP1;ratioP1;P1;durP2;ratioP2;P2;SDS_P1;SDS_P2;PMS_P1;PMS_P2;Temp;Humidity;BMP_temperature;BMP_pressure;BME280_temperature;BME280_humidity;BME280_pressure;Samples;Min_cycle;Max_cycle;Signal;HPM_P1;HPM_P2
2021/12/01 00:00:01;;;;;;;4.37;4.07;;;;;;;;;;5132930;27;20457;-83
2021/12/01 00:02:27;;;;;;;17.43;4.30;;;;;;;;;;5131017;27;20417;-84
2021/12/01 00:04:53;;;;;;;3.93;3.50;;;;;;;;;;5111681;27;20429;-83
2021/12/01 00:07:19;;;;;;;3.40;3.30;;;;;;;;;;5132568;27;20411;-83
2021/12/01 00:09:45;;;;;;;3.87;3.77;;;;;;;;;;5132678;27;20434;-84
2021/12/01 00:12:11;;;;;;;3.80;3.60;;;;;;;;;;5131980;27;20423;-83
2021/12/01 00:14:37;;;;;;;3.90;3.57;;;;;;;;;;5132639;27;20545;-84
2021/12/01 00:17:03;;;;;;;3.33;3.23;;;;;;;;;;5114734;27;20896;-84
2021/12/01 00:19:29;;;;;;;4.30;4.00;;;;;;;;;;5133862;27;20519;-84
2021/12/01 00:21:56;;;;;;;2.63;2.57;;;;;;;;;;5131205;27;20410;-83
2021/12/01 00:24:22;;;;;;;3.57;3.37;;;;;;;;;;5131606;27;20449;-84
2021/12/01 00:26:48;;;;;;;3.73;3.53;;;;;;;;;;5132540;27;20419;-83
2021/12/01 00:29:14;;;;;;;6.10;3.87;;;;;;;;;;5132916;27;20407;-83
2021/12/01 00:31:41;;;;;;;3.70;3.60;;;;;;;;;;5132879;27;20407;-84
2021/12/01 00:34:08;;;;;;;4.73;4.53;;;;;;;;;;5132650;27;20574;-82
2021/12/01 00:36:34;;;;;;;6.73;3.60;;;;;;;;;;5133395;27;20415;-83
2021/12/01 00:39:00;;;;;;;2.90;2.83;;;;;;;;;;5133196;27;20549;-83
2021/12/01 00:41:26;;;;;;;3.30;3.10;;;;;;;;;;5116115;27;20403;-83
2021/12/01 00:43:52;;;;;;;4.70;4.40;;;;;;;;;;5115600;27;20403;-83
2021/12/01 00:46:37;;;;;;;4.50;4.20;;;;;;;;;;5134696;27;20414;-84
2021/12/01 00:49:03;;;;;;;5.60;5.20;;;;;;;;;;5133142;27;20414;-83
2021/12/01 00:51:29;;;;;;;9.33;5.83;;;;;;;;;;5114686;27;20427;-82
2021/12/01 00:53:55;;;;;;;5.33;4.53;;;;;;;;;;5132083;27;20909;-83
2021/12/01 00:56:21;;;;;;;4.80;4.60;;;;;;;;;;5131293;27;20434;-83
2021/12/01 00:58:47;;;;;;;9.30;4.70;;;;;;;;;;5133176;27;20480;-83
2021/12/01 01:01:13;;;;;;;6.13;4.90;;;;;;;;;;5133281;27;20403;-83
2021/12/01 01:03:40;;;;;;;7.87;7.33;;;;;;;;;;5115014;27;20422;-84
2021/12/01 01:06:06;;;;;;;5.17;3.70;;;;;;;;;;5115753;28;20412;-82
2021/12/01 01:08:32;;;;;;;4.40;4.10;;;;;;;;;;5129084;27;20414;-83
2021/12/01 01:16:25;;;;;;;4.33;3.93;;;;;;;;;;5134915;27;20407;-84
2021/12/01 01:19:11;;;;;;;4.57;4.27;;;;;;;;;;5134612;27;20545;-85
2021/12/01 01:21:41;;;;;;;4.70;4.30;;;;;;;;;;5133897;27;20466;-84
2021/12/01 01:24:07;;;;;;;6.17;4.97;;;;;;;;;;5139498;27;20925;-85
2021/12/01 01:26:33;;;;;;;6.13;4.30;;;;;;;;;;5156316;27;20434;-85
2021/12/01 01:29:00;;;;;;;3.47;3.27;;;;;;;;;;5156628;27;20500;-85
2021/12/01 01:31:26;;;;;;;4.07;3.97;;;;;;;;;;5155590;27;20417;-84
2021/12/01 01:33:52;;;;;;;8.23;4.80;;;;;;;;;;5154060;27;20486;-85
2021/12/01 01:36:18;;;;;;;8.50;4.37;;;;;;;;;;5155296;27;20407;-84
2021/12/01 01:38:45;;;;;;;3.50;3.23;;;;;;;;;;5154325;28;20507;-84
2021/12/01 01:41:12;;;;;;;5.53;4.60;;;;;;;;;;5154997;28;20447;-85
2021/12/01 01:43:39;;;;;;;4.20;3.80;;;;;;;;;;5147646;27;20434;-83
2021/12/01 01:46:05;;;;;;;5.90;4.30;;;;;;;;;;5128896;27;20429;-83
2021/12/01 01:48:33;;;;;;;3.50;3.30;;;;;;;;;;5129217;28;21073;-83
2021/12/01 01:51:06;;;;;;;3.33;3.23;;;;;;;;;;5129499;27;20422;-83
2021/12/01 01:53:34;;;;;;;3.60;3.40;;;;;;;;;;5128075;28;20410;-82
2021/12/01 01:56:01;;;;;;;3.70;3.60;;;;;;;;;;5128510;28;20517;-82
2021/12/01 01:58:29;;;;;;;3.30;3.20;;;;;;;;;;5129326;28;20434;-83
2021/12/01 02:01:09;;;;;;;3.40;3.07;;;;;;;;;;5129508;27;20429;-83
2021/12/01 02:03:42;;;;;;;3.33;3.13;;;;;;;;;;5128174;28;20414;-83
2021/12/01 02:06:09;;;;;;;3.73;3.60;;;;;;;;;;5128830;28;20452;-83
2021/12/01 02:08:37;;;;;;;3.07;2.97;;;;;;;;;;5129330;28;20415;-83
2021/12/01 02:11:05;;;;;;;3.13;2.80;;;;;;;;;;5129106;27;20406;-84
2021/12/01 02:13:31;;;;;;;3.23;3.13;;;;;;;;;;5128551;27;20463;-83
2021/12/01 02:15:58;;;;;;;3.30;3.10;;;;;;;;;;5108440;28;20786;-83
2021/12/01 02:18:24;;;;;;;3.47;3.37;;;;;;;;;;5129688;28;20502;-83
2021/12/01 02:21:08;;;;;;;3.23;3.03;;;;;;;;;;5128822;28;20500;-83
2021/12/01 02:23:40;;;;;;;3.93;2.70;;;;;;;;;;5127686;27;20432;-83
2021/12/01 02:26:07;;;;;;;3.60;3.40;;;;;;;;;;5110792;27;20454;-83
2021/12/01 02:28:33;;;;;;;4.73;3.90;;;;;;;;;;5133160;27;20411;-82
2021/12/01 02:30:59;;;;;;;3.63;3.37;;;;;;;;;;5115209;27;20569;-84
2021/12/01 02:33:26;;;;;;;2.90;2.70;;;;;;;;;;5132827;27;20919;-83
2021/12/01 02:35:52;;;;;;;3.40;3.30;;;;;;;;;;5114196;27;20517;-83
2021/12/01 02:38:18;;;;;;;5.50;4.13;;;;;;;;;;5132918;27;20419;-83
2021/12/01 02:40:45;;;;;;;2.73;2.63;;;;;;;;;;5132518;27;20875;-83
2021/12/01 02:43:11;;;;;;;3.10;3.00;;;;;;;;;;5112946;27;20417;-83
2021/12/01 02:45:39;;;;;;;4.27;3.90;;;;;;;;;;5130006;27;20479;-83
2021/12/01 02:48:06;;;;;;;3.90;3.57;;;;;;;;;;5131741;27;20429;-82
2021/12/01 02:50:32;;;;;;;3.33;3.23;;;;;;;;;;5132429;27;20914;-83
2021/12/01 02:52:58;;;;;;;2.97;2.87;;;;;;;;;;5131480;27;20428;-83
2021/12/01 02:55:24;;;;;;;3.87;3.57;;;;;;;;;;5132508;27;20505;-83
2021/12/01 02:57:51;;;;;;;3.53;3.00;;;;;;;;;;5113416;27;20407;-83
2021/12/01 03:00:18;;;;;;;3.40;3.30;;;;;;;;;;5131199;27;20765;-83
2021/12/01 03:02:45;;;;;;;3.27;2.97;;;;;;;;;;5112126;27;20923;-82
2021/12/01 03:05:11;;;;;;;3.63;2.73;;;;;;;;;;5113787;27;20791;-82
2021/12/01 03:07:38;;;;;;;3.20;3.00;;;;;;;;;;5129177;27;20767;-83
2021/12/01 03:10:07;;;;;;;3.90;2.83;;;;;;;;;;5131708;27;20912;-83
2021/12/01 03:12:34;;;;;;;2.90;2.80;;;;;;;;;;5131639;27;20406;-83
2021/12/01 03:15:00;;;;;;;7.43;2.83;;;;;;;;;;5131950;27;20813;-83
2021/12/01 03:17:27;;;;;;;3.37;3.07;;;;;;;;;;5132357;27;20792;-83
2021/12/01 03:19:53;;;;;;;2.70;2.60;;;;;;;;;;5132004;27;20949;-84
2021/12/01 03:22:20;;;;;;;2.67;2.67;;;;;;;;;;5131168;27;20418;-82
2021/12/01 03:24:46;;;;;;;2.33;2.23;;;;;;;;;;5131716;27;20452;-82
2021/12/01 03:27:12;;;;;;;2.80;2.60;;;;;;;;;;5131395;27;20428;-83
2021/12/01 03:29:38;;;;;;;3.10;3.00;;;;;;;;;;5128985;27;20407;-83
2021/12/01 03:32:06;;;;;;;2.87;2.70;;;;;;;;;;5131119;27;20434;-83
2021/12/01 03:34:32;;;;;;;3.77;3.47;;;;;;;;;;5131534;27;20468;-83
2021/12/01 03:36:59;;;;;;;2.90;2.80;;;;;;;;;;5113150;27;21110;-83
2021/12/01 03:39:25;;;;;;;3.83;3.30;;;;;;;;;;5130947;27;20474;-83
2021/12/01 03:41:51;;;;;;;12.30;3.33;;;;;;;;;;5131204;27;20517;-83
2021/12/01 03:44:17;;;;;;;3.10;3.00;;;;;;;;;;5111403;27;20443;-82
2021/12/01 03:46:43;;;;;;;3.53;3.23;;;;;;;;;;5131241;27;20453;-83
2021/12/01 03:49:09;;;;;;;2.83;2.63;;;;;;;;;;5113046;27;20418;-82
2021/12/01 03:51:35;;;;;;;3.43;3.10;;;;;;;;;;5131255;27;20967;-83
2021/12/01 03:54:01;;;;;;;3.03;2.83;;;;;;;;;;5111949;27;20411;-82
2021/12/01 03:56:29;;;;;;;2.73;2.63;;;;;;;;;;5130525;27;20441;-83
2021/12/01 03:58:56;;;;;;;4.10;3.10;;;;;;;;;;5131825;27;20484;-83
2021/12/01 04:01:22;;;;;;;2.63;2.53;;;;;;;;;;5132610;27;20418;-82
2021/12/01 04:03:48;;;;;;;4.50;4.00;;;;;;;;;;5111581;27;20845;-83
2021/12/01 04:06:14;;;;;;;2.53;2.23;;;;;;;;;;5111922;27;20452;-83
2021/12/01 04:08:41;;;;;;;2.93;2.83;;;;;;;;;;5112247;27;20968;-83
2021/12/01 04:11:07;;;;;;;3.17;3.07;;;;;;;;;;5112749;27;20901;-83
2021/12/01 04:13:33;;;;;;;3.23;2.93;;;;;;;;;;5130177;27;20488;-84
2021/12/01 04:15:59;;;;;;;2.83;2.80;;;;;;;;;;5127714;27;20450;-83
2021/12/01 04:18:25;;;;;;;3.17;2.63;;;;;;;;;;5129139;27;20450;-83
2021/12/01 04:20:51;;;;;;;2.80;2.70;;;;;;;;;;5126485;27;20418;-82
2021/12/01 04:23:17;;;;;;;2.97;2.87;;;;;;;;;;5129928;27;20411;-83
2021/12/01 04:25:43;;;;;;;3.33;3.23;;;;;;;;;;5128757;27;20434;-83
2021/12/01 04:28:09;;;;;;;4.00;2.30;;;;;;;;;;5132761;27;20419;-83
2021/12/01 04:30:35;;;;;;;16.20;3.37;;;;;;;;;;5114845;27;20917;-83
2021/12/01 04:33:01;;;;;;;3.20;2.73;;;;;;;;;;5132138;27;20434;-82
2021/12/01 04:35:28;;;;;;;2.60;2.50;;;;;;;;;;5133121;27;20442;-84
2021/12/01 04:37:55;;;;;;;2.50;2.40;;;;;;;;;;5134530;27;20422;-83
2021/12/01 04:40:21;;;;;;;2.70;2.60;;;;;;;;;;5134472;27;20459;-83
2021/12/01 04:42:47;;;;;;;3.27;2.57;;;;;;;;;;5133816;27;20460;-82
2021/12/01 04:45:14;;;;;;;3.07;2.97;;;;;;;;;;5133030;27;20454;-82
2021/12/01 04:47:53;;;;;;;2.47;2.37;;;;;;;;;;5114747;27;20415;-83
2021/12/01 04:50:20;;;;;;;3.87;2.50;;;;;;;;;;5134054;27;20418;-83
2021/12/01 04:52:46;;;;;;;2.10;2.00;;;;;;;;;;5114583;27;20422;-83
2021/12/01 04:55:13;;;;;;;3.63;3.33;;;;;;;;;;5133785;27;21021;-81
2021/12/01 04:57:40;;;;;;;3.07;2.87;;;;;;;;;;5134139;27;20445;-83
2021/12/01 05:00:07;;;;;;;3.47;3.30;;;;;;;;;;5133568;27;20461;-83
2021/12/01 05:02:33;;;;;;;3.97;3.70;;;;;;;;;;5133491;27;20406;-83
2021/12/01 05:04:59;;;;;;;2.60;2.50;;;;;;;;;;5110475;27;20446;-82
2021/12/01 05:07:25;;;;;;;2.70;2.60;;;;;;;;;;5112674;27;20418;-82
2021/12/01 05:09:51;;;;;;;2.23;2.17;;;;;;;;;;5129754;27;20423;-82
2021/12/01 05:12:17;;;;;;;2.50;2.40;;;;;;;;;;5128639;27;20507;-83
2021/12/01 05:14:43;;;;;;;2.80;2.70;;;;;;;;;;5131050;27;20858;-83
2021/12/01 05:17:09;;;;;;;2.10;2.10;;;;;;;;;;5131915;27;20407;-83
2021/12/01 05:19:36;;;;;;;2.57;2.40;;;;;;;;;;5131515;27;20507;-83
2021/12/01 05:22:02;;;;;;;2.50;2.40;;;;;;;;;;5129925;27;20933;-83
2021/12/01 05:24:28;;;;;;;3.03;2.73;;;;;;;;;;5112695;27;20430;-83
2021/12/01 05:26:54;;;;;;;2.93;2.83;;;;;;;;;;5114683;27;20406;-83
2021/12/01 05:29:22;;;;;;;2.63;2.53;;;;;;;;;;5134416;27;20913;-84
2021/12/01 05:31:48;;;;;;;2.33;2.33;;;;;;;;;;5115361;28;20422;-84
2021/12/01 05:34:14;;;;;;;2.57;2.50;;;;;;;;;;5114914;27;20447;-83
2021/12/01 05:36:40;;;;;;;3.03;2.83;;;;;;;;;;5134542;27;20419;-83
2021/12/01 05:39:06;;;;;;;4.60;2.87;;;;;;;;;;5134115;28;20789;-84
2021/12/01 05:41:32;;;;;;;3.10;3.00;;;;;;;;;;5134128;28;20440;-83
2021/12/01 05:43:59;;;;;;;3.23;3.00;;;;;;;;;;5133237;28;20394;-84
2021/12/01 05:46:27;;;;;;;3.47;3.37;;;;;;;;;;5114656;28;20411;-83
2021/12/01 05:48:53;;;;;;;2.87;2.77;;;;;;;;;;5134017;27;20441;-83
2021/12/01 05:51:20;;;;;;;4.97;2.73;;;;;;;;;;5134167;28;20438;-83
2021/12/01 05:53:46;;;;;;;2.10;2.10;;;;;;;;;;5094092;28;20414;-83
2021/12/01 05:56:12;;;;;;;2.13;2.13;;;;;;;;;;5133360;27;20418;-83
2021/12/01 05:58:38;;;;;;;2.80;2.47;;;;;;;;;;5133254;27;20791;-83
2021/12/01 06:01:04;;;;;;;2.50;2.30;;;;;;;;;;5116168;27;20474;-83
2021/12/01 06:03:30;;;;;;;2.00;1.90;;;;;;;;;;5118626;27;20518;-83
2021/12/01 06:05:56;;;;;;;9.30;2.30;;;;;;;;;;5137174;27;20975;-83
2021/12/01 06:08:22;;;;;;;5.57;3.10;;;;;;;;;;5137823;27;20415;-83
2021/12/01 06:10:48;;;;;;;2.77;2.57;;;;;;;;;;5136567;27;20418;-83
2021/12/01 06:13:17;;;;;;;3.00;2.60;;;;;;;;;;5136105;27;20434;-83
2021/12/01 06:15:44;;;;;;;3.10;2.47;;;;;;;;;;5119896;27;20450;-83
2021/12/01 06:18:10;;;;;;;2.67;2.57;;;;;;;;;;5139663;27;20556;-85
2021/12/01 06:20:36;;;;;;;2.50;2.40;;;;;;;;;;5139306;27;20503;-82
2021/12/01 06:23:02;;;;;;;2.13;2.13;;;;;;;;;;5134897;27;20422;-83
2021/12/01 06:25:28;;;;;;;3.67;3.00;;;;;;;;;;5137629;27;20494;-82
2021/12/01 06:27:54;;;;;;;2.83;2.73;;;;;;;;;;5115205;27;22088;-81
2021/12/01 06:30:21;;;;;;;3.60;3.40;;;;;;;;;;5132655;27;20430;-83
2021/12/01 06:32:48;;;;;;;2.93;2.83;;;;;;;;;;5125324;27;20426;-82
2021/12/01 06:35:14;;;;;;;3.13;2.93;;;;;;;;;;5130294;27;20478;-82
2021/12/01 06:37:40;;;;;;;7.30;2.80;;;;;;;;;;5110108;27;20891;-82
2021/12/01 06:40:07;;;;;;;4.37;4.17;;;;;;;;;;5134320;27;20466;-82
2021/12/01 06:42:35;;;;;;;3.10;3.00;;;;;;;;;;5130543;27;20430;-82
2021/12/01 06:45:01;;;;;;;2.60;2.50;;;;;;;;;;5137165;27;20493;-82
2021/12/01 06:47:27;;;;;;;2.17;2.07;;;;;;;;;;5135606;27;20904;-82
2021/12/01 06:49:53;;;;;;;2.17;2.13;;;;;;;;;;5117371;27;20503;-82
2021/12/01 06:52:19;;;;;;;3.13;3.03;;;;;;;;;;5127973;27;20446;-83
2021/12/01 06:54:45;;;;;;;2.30;2.20;;;;;;;;;;5133752;27;20448;-83
2021/12/01 06:57:11;;;;;;;3.20;3.03;;;;;;;;;;5136752;27;20474;-83
2021/12/01 06:59:37;;;;;;;2.13;2.07;;;;;;;;;;5136316;27;20549;-83
2021/12/01 07:02:03;;;;;;;5.30;2.53;;;;;;;;;;5134184;27;20893;-84
2021/12/01 07:04:30;;;;;;;4.53;2.60;;;;;;;;;;5134166;27;20454;-83
2021/12/01 07:06:58;;;;;;;2.43;2.33;;;;;;;;;;5135352;27;20418;-83
2021/12/01 07:09:25;;;;;;;2.70;2.60;;;;;;;;;;5134932;27;20423;-83
2021/12/01 07:11:51;;;;;;;2.10;2.10;;;;;;;;;;5133751;27;20423;-84
2021/12/01 07:14:17;;;;;;;3.00;2.90;;;;;;;;;;5129024;27;20585;-82
2021/12/01 07:16:43;;;;;;;3.20;2.90;;;;;;;;;;5114241;28;20464;-82
2021/12/01 07:19:09;;;;;;;3.13;3.03;;;;;;;;;;5101660;27;20450;-83
2021/12/01 07:21:35;;;;;;;3.87;3.77;;;;;;;;;;5135972;27;20415;-83
2021/12/01 07:24:03;;;;;;;3.80;3.50;;;;;;;;;;5116427;27;20447;-83
2021/12/01 07:26:29;;;;;;;3.57;3.47;;;;;;;;;;5116344;27;20427;-82
2021/12/01 07:28:55;;;;;;;2.50;2.40;;;;;;;;;;5136015;27;20423;-83
2021/12/01 07:35:34;;;;;;;2.50;2.40;;;;;;;;;;5083595;28;20565;-83
2021/12/01 07:38:00;;;;;;;2.50;2.40;;;;;;;;;;5055409;28;20926;-82
2021/12/01 07:40:26;;;;;;;3.20;3.10;;;;;;;;;;5061457;28;20429;-83
2021/12/01 07:42:52;;;;;;;10.03;2.80;;;;;;;;;;5068889;28;20461;-83
2021/12/01 07:45:18;;;;;;;3.10;3.00;;;;;;;;;;5065168;28;20573;-83
2021/12/01 07:47:45;;;;;;;2.70;2.67;;;;;;;;;;5049450;28;20434;-83
2021/12/01 07:50:11;;;;;;;2.90;2.73;;;;;;;;;;5049902;28;20414;-83
2021/12/01 07:52:39;;;;;;;3.20;3.10;;;;;;;;;;5058529;28;20417;-84
2021/12/01 07:55:05;;;;;;;3.60;3.40;;;;;;;;;;5049302;28;20466;-83
2021/12/01 07:57:31;;;;;;;3.50;2.63;;;;;;;;;;5067099;28;20442;-83
2021/12/01 07:59:57;;;;;;;3.30;3.20;;;;;;;;;;5069489;28;20425;-83
2021/12/01 08:02:23;;;;;;;3.03;2.37;;;;;;;;;;5068254;28;20429;-84
2021/12/01 08:04:49;;;;;;;1.40;1.40;;;;;;;;;;5070025;28;20521;-84
2021/12/01 08:07:15;;;;;;;1.80;1.80;;;;;;;;;;5050815;28;20426;-84
2021/12/01 08:09:41;;;;;;;1.90;1.90;;;;;;;;;;5055790;28;20834;-83
2021/12/01 08:12:11;;;;;;;2.60;2.50;;;;;;;;;;5069213;28;20410;-83
2021/12/01 08:14:37;;;;;;;2.10;2.00;;;;;;;;;;5068466;28;20501;-83
2021/12/01 08:17:03;;;;;;;2.03;2.03;;;;;;;;;;5066260;28;20415;-82
2021/12/01 08:19:29;;;;;;;2.30;2.20;;;;;;;;;;5047327;28;20430;-83
2021/12/01 08:21:55;;;;;;;1.90;1.90;;;;;;;;;;5050319;28;20788;-83
2021/12/01 08:24:21;;;;;;;1.73;1.63;;;;;;;;;;5062736;28;20435;-83
2021/12/01 08:26:49;;;;;;;1.80;1.80;;;;;;;;;;5051760;28;20911;-82
2021/12/01 08:29:15;;;;;;;3.00;1.67;;;;;;;;;;5049300;28;20415;-82
2021/12/01 08:31:41;;;;;;;1.43;1.43;;;;;;;;;;5047696;28;20418;-84
2021/12/01 08:34:07;;;;;;;2.07;1.97;;;;;;;;;;5067023;28;20469;-85
2021/12/01 08:36:34;;;;;;;2.10;1.30;;;;;;;;;;5069169;28;20425;-85
2021/12/01 08:39:00;;;;;;;1.80;1.80;;;;;;;;;;5063722;28;20410;-82
2021/12/01 08:41:26;;;;;;;1.87;1.77;;;;;;;;;;5069134;28;20755;-82
2021/12/01 08:43:52;;;;;;;1.93;1.60;;;;;;;;;;5068006;28;20447;-83
2021/12/01 08:46:18;;;;;;;2.13;2.03;;;;;;;;;;5045845;28;20486;-82
2021/12/01 08:48:44;;;;;;;1.63;1.53;;;;;;;;;;5034166;28;20434;-82
2021/12/01 08:51:10;;;;;;;1.70;1.70;;;;;;;;;;5036050;28;20863;-82
2021/12/01 08:53:40;;;;;;;2.03;1.83;;;;;;;;;;5051597;28;20454;-83
2021/12/01 08:56:06;;;;;;;2.07;1.97;;;;;;;;;;5054466;28;20901;-82
2021/12/01 08:58:32;;;;;;;1.93;1.83;;;;;;;;;;5053662;28;20430;-83
2021/12/01 09:00:58;;;;;;;1.70;1.60;;;;;;;;;;5035082;28;20423;-82
2021/12/01 09:03:25;;;;;;;1.83;1.77;;;;;;;;;;5033587;28;20420;-82
2021/12/01 09:05:52;;;;;;;2.63;2.40;;;;;;;;;;5035409;28;20437;-81
2021/12/01 09:08:20;;;;;;;2.13;2.03;;;;;;;;;;5039400;28;20430;-84
2021/12/01 09:10:47;;;;;;;2.17;2.17;;;;;;;;;;5044514;28;20945;-82
2021/12/01 09:13:13;;;;;;;2.50;2.40;;;;;;;;;;5033742;28;20422;-82
2021/12/01 09:15:39;;;;;;;2.77;2.67;;;;;;;;;;5035051;28;20481;-83
2021/12/01 09:18:06;;;;;;;11.80;3.20;;;;;;;;;;5035841;28;20509;-82
2021/12/01 09:20:32;;;;;;;13.43;12.10;;;;;;;;;;5052070;28;20478;-82
2021/12/01 09:23:00;;;;;;;2.60;2.50;;;;;;;;;;5039081;28;20981;-82
2021/12/01 09:25:26;;;;;;;2.87;2.73;;;;;;;;;;5034144;28;20450;-82
2021/12/01 09:27:52;;;;;;;2.23;2.13;;;;;;;;;;5034977;28;20518;-83
2021/12/01 09:30:19;;;;;;;2.30;2.20;;;;;;;;;;5034286;28;20446;-83
2021/12/01 09:32:45;;;;;;;1.80;1.80;;;;;;;;;;5042373;28;20410;-83
2021/12/01 09:35:12;;;;;;;3.37;3.07;;;;;;;;;;5043025;28;20503;-84
2021/12/01 09:37:38;;;;;;;3.37;3.27;;;;;;;;;;5036624;28;20411;-84
2021/12/01 09:40:12;;;;;;;8.00;7.40;;;;;;;;;;5039853;28;20423;-83
2021/12/01 09:42:38;;;;;;;2.90;2.40;;;;;;;;;;5052586;28;20525;-81
2021/12/01 09:45:05;;;;;;;2.00;2.00;;;;;;;;;;5055491;28;20426;-82
2021/12/01 09:47:31;;;;;;;3.80;1.50;;;;;;;;;;5054017;28;20938;-81
2021/12/01 09:49:57;;;;;;;2.30;2.20;;;;;;;;;;5055405;28;20425;-81
2021/12/01 09:52:23;;;;;;;2.30;1.83;;;;;;;;;;5044959;28;20430;-81
2021/12/01 09:54:50;;;;;;;2.60;2.50;;;;;;;;;;5034764;28;20814;-82
2021/12/01 09:57:16;;;;;;;2.43;2.33;;;;;;;;;;5034835;28;20412;-85
2021/12/01 09:59:43;;;;;;;2.93;2.83;;;;;;;;;;5035284;28;20432;-85
2021/12/01 10:02:09;;;;;;;2.67;2.57;;;;;;;;;;5034558;28;20419;-85
2021/12/01 10:04:35;;;;;;;2.33;2.20;;;;;;;;;;5035134;28;20489;-82
2021/12/01 10:07:16;;;;;;;1.97;1.97;;;;;;;;;;5037891;28;20418;-83
2021/12/01 10:09:45;;;;;;;1.80;1.70;;;;;;;;;;5045948;28;20907;-81
2021/12/01 10:12:12;;;;;;;3.00;2.90;;;;;;;;;;5056158;28;20448;-83
2021/12/01 10:14:38;;;;;;;2.27;2.17;;;;;;;;;;5041404;28;20467;-83
2021/12/01 10:17:04;;;;;;;2.40;2.30;;;;;;;;;;5052385;28;20813;-82
2021/12/01 10:19:30;;;;;;;3.47;3.30;;;;;;;;;;5047228;28;20449;-83
2021/12/01 10:21:59;;;;;;;3.70;3.50;;;;;;;;;;5032507;28;20423;-82
2021/12/01 10:24:26;;;;;;;3.70;3.33;;;;;;;;;;5032788;28;20448;-83
2021/12/01 10:26:56;;;;;;;3.33;3.23;;;;;;;;;;5034549;28;20506;-83
2021/12/01 10:29:24;;;;;;;4.03;3.80;;;;;;;;;;5034244;28;20434;-82
2021/12/01 10:31:52;;;;;;;3.97;3.83;;;;;;;;;;5036163;28;21011;-83
2021/12/01 10:34:53;;;;;;;2.80;2.70;;;;;;;;;;5049013;28;20509;-82
2021/12/01 10:37:33;;;;;;;4.60;4.40;;;;;;;;;;5014448;28;20431;-83
2021/12/01 10:40:09;;;;;;;3.13;3.03;;;;;;;;;;5039240;28;20458;-84
2021/12/01 10:42:49;;;;;;;3.70;3.40;;;;;;;;;;5035675;28;20423;-85
2021/12/01 10:45:17;;;;;;;4.27;4.07;;;;;;;;;;5036850;28;20564;-84
2021/12/01 10:47:44;;;;;;;3.53;3.43;;;;;;;;;;5039639;28;20438;-84
2021/12/01 10:50:11;;;;;;;3.27;3.10;;;;;;;;;;5032898;28;20553;-84
2021/12/01 10:52:39;;;;;;;5.63;5.30;;;;;;;;;;5040551;28;20545;-84
2021/12/01 10:55:10;;;;;;;3.13;3.03;;;;;;;;;;5031889;28;20906;-83
2021/12/01 10:57:38;;;;;;;3.60;3.50;;;;;;;;;;5032841;28;20472;-82
2021/12/01 11:00:10;;;;;;;2.90;2.80;;;;;;;;;;5030799;28;20423;-84
2021/12/01 11:02:37;;;;;;;2.20;2.13;;;;;;;;;;5032564;28;20431;-83
2021/12/01 11:05:03;;;;;;;6.20;3.00;;;;;;;;;;5035585;28;20431;-82
2021/12/01 11:07:29;;;;;;;4.00;3.50;;;;;;;;;;5034219;28;20723;-82
2021/12/01 11:10:10;;;;;;;2.90;2.63;;;;;;;;;;5045295;28;20863;-82
2021/12/01 11:12:36;;;;;;;3.60;3.50;;;;;;;;;;5049334;28;20446;-83
2021/12/01 11:15:18;;;;;;;2.90;2.80;;;;;;;;;;5034783;28;20561;-83
2021/12/01 11:17:45;;;;;;;3.33;3.23;;;;;;;;;;5035363;28;20475;-83
2021/12/01 11:20:11;;;;;;;3.47;3.27;;;;;;;;;;5032638;28;20458;-83
2021/12/01 11:22:37;;;;;;;2.67;2.57;;;;;;;;;;5048106;28;20422;-83
2021/12/01 11:25:25;;;;;;;3.17;3.07;;;;;;;;;;5055171;28;20522;-83
2021/12/01 11:27:51;;;;;;;2.50;2.40;;;;;;;;;;5058487;28;20415;-83
2021/12/01 11:30:19;;;;;;;3.33;2.53;;;;;;;;;;5058946;28;20772;-84
2021/12/01 11:32:45;;;;;;;3.13;2.73;;;;;;;;;;5059728;28;20421;-83
2021/12/01 11:35:11;;;;;;;3.13;2.93;;;;;;;;;;5060562;28;20822;-82
2021/12/01 11:37:37;;;;;;;3.37;3.17;;;;;;;;;;5060654;28;20406;-82
2021/12/01 11:40:04;;;;;;;4.03;3.83;;;;;;;;;;5054609;28;20406;-82
2021/12/01 11:42:30;;;;;;;3.27;2.83;;;;;;;;;;5060195;28;20471;-83
2021/12/01 11:44:57;;;;;;;2.43;2.33;;;;;;;;;;5057595;28;20516;-83
2021/12/01 11:47:23;;;;;;;2.83;2.73;;;;;;;;;;5059703;28;20456;-82
2021/12/01 11:49:51;;;;;;;3.90;3.70;;;;;;;;;;5058509;28;20446;-82
2021/12/01 11:52:17;;;;;;;2.80;2.60;;;;;;;;;;5059047;28;20509;-82
2021/12/01 11:54:44;;;;;;;3.60;3.47;;;;;;;;;;5058698;28;20494;-82
2021/12/01 11:57:11;;;;;;;7.30;2.60;;;;;;;;;;5058383;28;20414;-82
2021/12/01 11:59:38;;;;;;;3.27;3.00;;;;;;;;;;5051252;28;20437;-82
2021/12/01 12:02:07;;;;;;;2.40;2.30;;;;;;;;;;5040598;28;20436;-82
2021/12/01 12:04:40;;;;;;;5.20;4.50;;;;;;;;;;5043387;28;20851;-82
2021/12/01 12:07:06;;;;;;;3.70;3.50;;;;;;;;;;5051455;28;20452;-81
2021/12/01 12:09:33;;;;;;;6.40;3.70;;;;;;;;;;5057866;28;20441;-81
2021/12/01 12:11:59;;;;;;;4.40;2.57;;;;;;;;;;5052555;28;20899;-82
2021/12/01 12:14:36;;;;;;;2.27;2.13;;;;;;;;;;5057702;28;20462;-82
2021/12/01 12:17:10;;;;;;;2.90;2.70;;;;;;;;;;5053555;28;20449;-82
2021/12/01 12:19:51;;;;;;;2.97;2.87;;;;;;;;;;5056099;28;20429;-82
2021/12/01 12:22:34;;;;;;;2.33;2.27;;;;;;;;;;5051807;28;20419;-83
2021/12/01 12:25:01;;;;;;;2.27;2.17;;;;;;;;;;5041670;28;20446;-83
2021/12/01 12:27:40;;;;;;;2.23;2.13;;;;;;;;;;5040395;28;20454;-82
2021/12/01 12:30:14;;;;;;;3.00;2.90;;;;;;;;;;5043945;28;20454;-82
2021/12/01 12:32:42;;;;;;;1.73;1.73;;;;;;;;;;5061018;28;20451;-82
2021/12/01 12:35:17;;;;;;;2.47;2.27;;;;;;;;;;5043447;28;20470;-83
2021/12/01 12:41:32;;;;;;;2.80;2.70;;;;;;;;;;5117027;27;20948;-82
2021/12/01 12:44:18;;;;;;;2.80;2.50;;;;;;;;;;5116005;28;20408;-82
2021/12/01 12:47:00;;;;;;;7.70;2.13;;;;;;;;;;5115376;28;20844;-82
2021/12/01 12:49:46;;;;;;;2.77;2.67;;;;;;;;;;5103355;28;20538;-83
2021/12/01 12:52:24;;;;;;;3.53;2.10;;;;;;;;;;5102839;28;20429;-82
2021/12/01 12:54:51;;;;;;;1.67;1.60;;;;;;;;;;5109382;28;20560;-83
2021/12/01 12:57:17;;;;;;;2.13;2.03;;;;;;;;;;5096109;28;20778;-82
2021/12/01 12:59:44;;;;;;;1.70;1.63;;;;;;;;;;5096546;28;20823;-82
2021/12/01 13:02:10;;;;;;;3.63;1.73;;;;;;;;;;5094871;28;20717;-83
2021/12/01 13:04:51;;;;;;;2.10;2.10;;;;;;;;;;5094217;28;20436;-82
2021/12/01 13:10:14;;;;;;;6.63;3.87;;;;;;;;;;5102009;28;20456;-82
2021/12/01 13:12:45;;;;;;;2.13;2.03;;;;;;;;;;5097865;28;20441;-83
2021/12/01 13:15:28;;;;;;;2.13;2.03;;;;;;;;;;5112400;28;20439;-82
2021/12/01 13:17:56;;;;;;;3.03;2.43;;;;;;;;;;5112923;28;20906;-82
2021/12/01 13:20:22;;;;;;;2.13;2.03;;;;;;;;;;5114563;28;20470;-82
2021/12/01 13:23:03;;;;;;;2.37;2.27;;;;;;;;;;5114813;28;20413;-82
2021/12/01 13:25:29;;;;;;;2.47;2.37;;;;;;;;;;5113076;28;20492;-82
2021/12/01 13:27:56;;;;;;;1.87;1.77;;;;;;;;;;5114481;28;20487;-82
2021/12/01 13:30:22;;;;;;;6.13;3.10;;;;;;;;;;5102462;28;20455;-82
2021/12/01 13:33:08;;;;;;;2.03;1.93;;;;;;;;;;5113571;28;20447;-82
2021/12/01 13:35:34;;;;;;;2.03;2.03;;;;;;;;;;5105730;28;20868;-81
2021/12/01 13:38:00;;;;;;;2.37;2.27;;;;;;;;;;5092562;28;20427;-81
2021/12/01 13:40:27;;;;;;;2.30;2.10;;;;;;;;;;5107036;28;20825;-82
2021/12/01 13:42:53;;;;;;;2.03;1.93;;;;;;;;;;5115597;28;20440;-82
2021/12/01 13:45:19;;;;;;;2.60;2.50;;;;;;;;;;5109017;28;20447;-82
2021/12/01 13:47:45;;;;;;;3.17;1.97;;;;;;;;;;5094334;28;20457;-82
2021/12/01 13:50:11;;;;;;;3.03;2.83;;;;;;;;;;5095887;28;20495;-83
2021/12/01 13:52:37;;;;;;;2.73;2.63;;;;;;;;;;5101628;28;20428;-82
2021/12/01 13:55:22;;;;;;;2.27;2.17;;;;;;;;;;5098513;28;20428;-82
2021/12/01 13:57:49;;;;;;;1.83;1.73;;;;;;;;;;5081622;28;20435;-83
2021/12/01 14:00:16;;;;;;;2.40;2.40;;;;;;;;;;5078752;28;20457;-82
2021/12/01 14:02:42;;;;;;;2.30;2.30;;;;;;;;;;5078268;28;20429;-83
2021/12/01 14:05:08;;;;;;;2.23;2.13;;;;;;;;;;5079026;28;20506;-82
2021/12/01 14:07:41;;;;;;;2.43;2.33;;;;;;;;;;5079026;28;20401;-82
2021/12/01 14:10:22;;;;;;;1.90;1.90;;;;;;;;;;5092416;28;20484;-83
2021/12/01 14:12:58;;;;;;;3.23;2.20;;;;;;;;;;5076749;28;21059;-83
2021/12/01 14:15:31;;;;;;;4.30;2.80;;;;;;;;;;5085195;28;20808;-83
2021/12/01 14:17:58;;;;;;;2.03;2.03;;;;;;;;;;5096684;28;20412;-83
2021/12/01 14:20:25;;;;;;;5.97;3.03;;;;;;;;;;5096355;28;20958;-84
2021/12/01 14:22:52;;;;;;;2.17;2.17;;;;;;;;;;5095994;28;20416;-83
2021/12/01 14:25:20;;;;;;;2.40;2.30;;;;;;;;;;5096111;28;20570;-84
2021/12/01 14:27:47;;;;;;;2.63;2.53;;;;;;;;;;5095658;28;20405;-83
2021/12/01 14:30:17;;;;;;;2.00;1.90;;;;;;;;;;5096851;28;20805;-85
2021/12/01 14:32:45;;;;;;;1.50;1.50;;;;;;;;;;5090848;28;20444;-85
2021/12/01 14:35:11;;;;;;;1.70;1.70;;;;;;;;;;5094668;28;20441;-85
2021/12/01 14:37:38;;;;;;;2.47;2.47;;;;;;;;;;5095609;28;20421;-85
2021/12/01 14:40:05;;;;;;;2.50;2.40;;;;;;;;;;5083703;28;20465;-83
2021/12/01 14:42:31;;;;;;;2.37;2.27;;;;;;;;;;5095679;28;20412;-83
2021/12/01 14:45:03;;;;;;;6.27;3.67;;;;;;;;;;5092674;28;20451;-83
2021/12/01 14:47:29;;;;;;;2.80;2.60;;;;;;;;;;5075150;28;20390;-83
2021/12/01 14:49:56;;;;;;;2.20;2.20;;;;;;;;;;5074352;28;20578;-84
2021/12/01 14:52:23;;;;;;;2.73;2.53;;;;;;;;;;5084699;28;20922;-85
2021/12/01 14:55:03;;;;;;;2.23;2.23;;;;;;;;;;5079867;28;20444;-85
2021/12/01 14:57:31;;;;;;;2.80;2.70;;;;;;;;;;5077639;28;20398;-85
2021/12/01 14:59:59;;;;;;;2.30;2.30;;;;;;;;;;5076654;28;20465;-85
2021/12/01 15:02:31;;;;;;;3.10;3.00;;;;;;;;;;5094514;28;20504;-84